PWSweather.com
Personal Weather Stations
Station Observations
NIGHT1
EastleighGB

EastleighGB

Lat: 50.966307, Lon: -1.380982

Elevation: 78

Station Type: Davis VP2 with daytime FARS

Latest ConditionsUpdated 2:20:01 PM GMT Thursday, Dec 18, 2014
Currently Today's Max Today's Min Today's Average
Temperature 54.7°F12.6°C 55.8°F13.2°C 54.0°F12.2°C 54.7°F12.6°C
Dew Point 52.4°F11.3°C 53.1°F11.7°C 51.7°F10.9°C 52.5°F11.4°C
Winds 9.0 mph WSW14.5 kmh WSW 10.0 mph WSW16.1 kmh WSW - 7.0 mph 11.3 kmh
Wind Gusts 22.0 mph35.4 kmh 23.0 mph37.0 kmh - -
Humidity 92% 95% 88% 92%
Pressure 29.85 in1010.8 mb 29.89 in1012.2 mb 29.81 in1009.5 mb -
Hour Temp Dew Point Humidity Winds Wind Gusts Pressure Precip Precip Rate Daily Precip Total
02:20 PM 54.7°F12.6°C 52.4°F11.3°C 92% 9.0 mph WSW14.5 kmh WSW 22.0 mph35.4 kmh 29.85 in1010.8 mb 0.00 in0.0 mm 0.00 in/hr0.0 mm/hr 0.00 in0.0 mm
02:15 PM 54.7°F12.6°C 52.1°F11.2°C 91% 9.0 mph WSW14.5 kmh WSW 22.0 mph35.4 kmh 29.85 in1010.8 mb 0.00 in0.0 mm 0.00 in/hr0.0 mm/hr 0.00 in0.0 mm
02:10 PM 54.9°F12.7°C 52.3°F11.3°C 91% 9.0 mph WSW14.5 kmh WSW 16.0 mph25.7 kmh 29.85 in1010.8 mb 0.00 in0.0 mm 0.00 in/hr0.0 mm/hr 0.00 in0.0 mm
02:05 PM 54.9°F12.7°C 52.3°F11.3°C 91% 8.0 mph WSW12.9 kmh WSW 23.0 mph37.0 kmh 29.85 in1010.8 mb 0.00 in0.0 mm 0.00 in/hr0.0 mm/hr 0.00 in0.0 mm
02:00 PM 55.0°F12.8°C 52.2°F11.2°C 90% 8.0 mph WSW12.9 kmh WSW 23.0 mph37.0 kmh 29.85 in1010.8 mb 0.00 in0.0 mm 0.00 in/hr0.0 mm/hr 0.00 in0.0 mm
01:55 PM 55.0°F12.8°C 52.2°F11.2°C 90% 9.0 mph WSW14.5 kmh WSW 19.0 mph30.6 kmh 29.85 in1010.8 mb 0.00 in0.0 mm 0.00 in/hr0.0 mm/hr 0.00 in0.0 mm
01:50 PM 55.0°F12.8°C 52.2°F11.2°C 90% 9.0 mph WSW14.5 kmh WSW 19.0 mph30.6 kmh 29.85 in1010.8 mb 0.00 in0.0 mm 0.00 in/hr0.0 mm/hr 0.00 in0.0 mm
01:45 PM 55.2°F12.9°C 52.3°F11.3°C 90% 9.0 mph WSW14.5 kmh WSW 18.0 mph29.0 kmh 29.85 in1010.8 mb 0.00 in0.0 mm 0.00 in/hr0.0 mm/hr 0.00 in0.0 mm
01:40 PM 55.2°F12.9°C 52.0°F11.1°C 89% 9.0 mph WSW14.5 kmh WSW 20.0 mph32.2 kmh 29.85 in1010.8 mb 0.00 in0.0 mm 0.00 in/hr0.0 mm/hr 0.00 in0.0 mm
01:35 PM 55.4°F13.0°C 52.2°F11.2°C 89% 8.0 mph WSW12.9 kmh WSW 20.0 mph32.2 kmh 29.84 in1010.5 mb 0.00 in0.0 mm 0.00 in/hr0.0 mm/hr 0.00 in0.0 mm
01:30 PM 55.6°F13.1°C 52.4°F11.3°C 89% 8.0 mph SW12.9 kmh SW 18.0 mph29.0 kmh 29.84 in1010.5 mb 0.00 in0.0 mm 0.00 in/hr0.0 mm/hr 0.00 in0.0 mm
01:25 PM 55.4°F13.0°C 52.2°F11.2°C 89% 8.0 mph WSW12.9 kmh WSW 19.0 mph30.6 kmh 29.84 in1010.5 mb 0.00 in0.0 mm 0.00 in/hr0.0 mm/hr 0.00 in0.0 mm
01:20 PM 55.4°F13.0°C 52.2°F11.2°C 89% 7.0 mph WSW11.3 kmh WSW 19.0 mph30.6 kmh 29.85 in1010.8 mb 0.00 in0.0 mm 0.00 in/hr0.0 mm/hr 0.00 in0.0 mm
01:15 PM 55.6°F13.1°C 52.1°F11.2°C 88% 6.0 mph SW9.7 kmh SW 17.0 mph27.4 kmh 29.85 in1010.8 mb 0.00 in0.0 mm 0.00 in/hr0.0 mm/hr 0.00 in0.0 mm
01:10 PM 55.6°F13.1°C 52.1°F11.2°C 88% 6.0 mph SW9.7 kmh SW 14.0 mph22.5 kmh 29.85 in1010.8 mb 0.00 in0.0 mm 0.00 in/hr0.0 mm/hr 0.00 in0.0 mm
01:05 PM 55.8°F13.2°C 52.3°F11.3°C 88% 7.0 mph SW11.3 kmh SW 20.0 mph32.2 kmh 29.85 in1010.8 mb 0.00 in0.0 mm 0.00 in/hr0.0 mm/hr 0.00 in0.0 mm
01:00 PM 55.8°F13.2°C 52.3°F11.3°C 88% 7.0 mph SW11.3 kmh SW 20.0 mph32.2 kmh 29.85 in1010.8 mb 0.00 in0.0 mm 0.00 in/hr0.0 mm/hr 0.00 in0.0 mm
12:55 PM 55.8°F13.2°C 52.3°F11.3°C 88% 7.0 mph SW11.3 kmh SW 15.0 mph24.1 kmh 29.85 in1010.8 mb 0.00 in0.0 mm 0.00 in/hr0.0 mm/hr 0.00 in0.0 mm
12:50 PM 55.8°F13.2°C 52.3°F11.3°C 88% 7.0 mph WSW11.3 kmh WSW 17.0 mph27.4 kmh 29.86 in1011.2 mb 0.00 in0.0 mm 0.00 in/hr0.0 mm/hr 0.00 in0.0 mm
12:45 PM 55.8°F13.2°C 52.3°F11.3°C 88% 7.0 mph SW11.3 kmh SW 17.0 mph27.4 kmh 29.86 in1011.2 mb 0.00 in0.0 mm 0.00 in/hr0.0 mm/hr 0.00 in0.0 mm
12:40 PM 55.8°F13.2°C 52.3°F11.3°C 88% 6.0 mph WSW9.7 kmh WSW 18.0 mph29.0 kmh 29.86 in1011.2 mb 0.00 in0.0 mm 0.00 in/hr0.0 mm/hr 0.00 in0.0 mm
12:35 PM 55.8°F13.2°C 52.3°F11.3°C 88% 6.0 mph WSW9.7 kmh WSW 18.0 mph29.0 kmh 29.86 in1011.2 mb 0.00 in0.0 mm 0.00 in/hr0.0 mm/hr 0.00 in0.0 mm
12:30 PM 55.8°F13.2°C 52.3°F11.3°C 88% 6.0 mph SW9.7 kmh SW 12.0 mph19.3 kmh 29.86 in1011.2 mb 0.00 in0.0 mm 0.00 in/hr0.0 mm/hr 0.00 in0.0 mm
12:25 PM 55.6°F13.1°C 52.1°F11.2°C 88% 6.0 mph SW9.7 kmh SW 14.0 mph22.5 kmh 29.86 in1011.2 mb 0.00 in0.0 mm 0.00 in/hr0.0 mm/hr 0.00 in0.0 mm
12:20 PM 55.6°F13.1°C 52.1°F11.2°C 88% 7.0 mph WSW11.3 kmh WSW 14.0 mph22.5 kmh 29.86 in1011.2 mb 0.00 in0.0 mm 0.00 in/hr0.0 mm/hr 0.00 in0.0 mm
12:15 PM 55.4°F13.0°C 52.2°F11.2°C 89% 7.0 mph WSW11.3 kmh WSW 15.0 mph24.1 kmh 29.86 in1011.2 mb 0.00 in0.0 mm 0.00 in/hr0.0 mm/hr 0.00 in0.0 mm
12:10 PM 55.2°F12.9°C 52.0°F11.1°C 89% 7.0 mph WSW11.3 kmh WSW 15.0 mph24.1 kmh 29.86 in1011.2 mb 0.00 in0.0 mm 0.00 in/hr0.0 mm/hr 0.00 in0.0 mm
12:05 PM 55.0°F12.8°C 52.2°F11.2°C 90% 7.0 mph WSW11.3 kmh WSW 16.0 mph25.7 kmh 29.86 in1011.2 mb 0.00 in0.0 mm 0.00 in/hr0.0 mm/hr 0.00 in0.0 mm
12:00 PM 55.0°F12.8°C 52.2°F11.2°C 90% 7.0 mph WSW11.3 kmh WSW 19.0 mph30.6 kmh 29.86 in1011.2 mb 0.00 in0.0 mm 0.00 in/hr0.0 mm/hr 0.00 in0.0 mm
11:55 AM 54.9°F12.7°C 52.0°F11.1°C 90% 7.0 mph WSW11.3 kmh WSW 19.0 mph30.6 kmh 29.87 in1011.5 mb 0.00 in0.0 mm 0.00 in/hr0.0 mm/hr 0.00 in0.0 mm
11:50 AM 54.9°F12.7°C 52.0°F11.1°C 90% 8.0 mph WSW12.9 kmh WSW 16.0 mph25.7 kmh 29.87 in1011.5 mb 0.00 in0.0 mm 0.00 in/hr0.0 mm/hr 0.00 in0.0 mm
11:45 AM 54.7°F12.6°C 52.1°F11.2°C 91% 8.0 mph WSW12.9 kmh WSW 16.0 mph25.7 kmh 29.87 in1011.5 mb 0.00 in0.0 mm 0.00 in/hr0.0 mm/hr 0.00 in0.0 mm
11:40 AM 54.5°F12.5°C 51.9°F11.1°C 91% 7.0 mph WSW11.3 kmh WSW 15.0 mph24.1 kmh 29.88 in1011.9 mb 0.00 in0.0 mm 0.00 in/hr0.0 mm/hr 0.00 in0.0 mm
11:35 AM 54.3°F12.4°C 51.7°F10.9°C 91% 6.0 mph WSW9.7 kmh WSW 15.0 mph24.1 kmh 29.88 in1011.9 mb 0.00 in0.0 mm 0.00 in/hr0.0 mm/hr 0.00 in0.0 mm
11:30 AM 54.3°F12.4°C 52.0°F11.1°C 92% 6.0 mph WSW9.7 kmh WSW 13.0 mph20.9 kmh 29.88 in1011.9 mb 0.00 in0.0 mm 0.00 in/hr0.0 mm/hr 0.00 in0.0 mm
11:25 AM 54.1°F12.3°C 51.9°F11.1°C 92% 6.0 mph WSW9.7 kmh WSW 13.0 mph20.9 kmh 29.89 in1012.2 mb 0.00 in0.0 mm 0.00 in/hr0.0 mm/hr 0.00 in0.0 mm
11:20 AM 54.1°F12.3°C 51.9°F11.1°C 92% 6.0 mph WSW9.7 kmh WSW 14.0 mph22.5 kmh 29.89 in1012.2 mb 0.00 in0.0 mm 0.00 in/hr0.0 mm/hr 0.00 in0.0 mm
11:15 AM 54.1°F12.3°C 51.9°F11.1°C 92% 6.0 mph WSW9.7 kmh WSW 14.0 mph22.5 kmh 29.89 in1012.2 mb 0.00 in0.0 mm 0.00 in/hr0.0 mm/hr 0.00 in0.0 mm
11:10 AM 54.1°F12.3°C 51.9°F11.1°C 92% 6.0 mph WSW9.7 kmh WSW 18.0 mph29.0 kmh 29.89 in1012.2 mb 0.00 in0.0 mm 0.00 in/hr0.0 mm/hr 0.00 in0.0 mm
11:05 AM 54.1°F12.3°C 51.9°F11.1°C 92% 7.0 mph WSW11.3 kmh WSW 18.0 mph29.0 kmh 29.89 in1012.2 mb 0.00 in0.0 mm 0.00 in/hr0.0 mm/hr 0.00 in0.0 mm
11:00 AM 54.1°F12.3°C 51.9°F11.1°C 92% 7.0 mph WSW11.3 kmh WSW 15.0 mph24.1 kmh 29.89 in1012.2 mb 0.00 in0.0 mm 0.00 in/hr0.0 mm/hr 0.00 in0.0 mm
10:55 AM 54.1°F12.3°C 51.9°F11.1°C 92% 6.0 mph WSW9.7 kmh WSW 15.0 mph24.1 kmh 29.89 in1012.2 mb 0.00 in0.0 mm 0.00 in/hr0.0 mm/hr 0.00 in0.0 mm
10:50 AM 54.1°F12.3°C 51.9°F11.1°C 92% 6.0 mph WSW9.7 kmh WSW 14.0 mph22.5 kmh 29.89 in1012.2 mb 0.00 in0.0 mm 0.00 in/hr0.0 mm/hr 0.00 in0.0 mm
10:45 AM 54.1°F12.3°C 51.9°F11.1°C 92% 6.0 mph WSW9.7 kmh WSW 14.0 mph22.5 kmh 29.89 in1012.2 mb 0.00 in0.0 mm 0.00 in/hr0.0 mm/hr 0.00 in0.0 mm
10:40 AM 54.1°F12.3°C 51.9°F11.1°C 92% 6.0 mph WSW9.7 kmh WSW 17.0 mph27.4 kmh 29.88 in1011.9 mb 0.00 in0.0 mm 0.00 in/hr0.0 mm/hr 0.00 in0.0 mm
10:35 AM 54.1°F12.3°C 51.9°F11.1°C 92% 6.0 mph WSW9.7 kmh WSW 17.0 mph27.4 kmh 29.89 in1012.2 mb 0.00 in0.0 mm 0.00 in/hr0.0 mm/hr 0.00 in0.0 mm
10:30 AM 54.3°F12.4°C 52.0°F11.1°C 92% 7.0 mph SW11.3 kmh SW 13.0 mph20.9 kmh 29.89 in1012.2 mb 0.00 in0.0 mm 0.00 in/hr0.0 mm/hr 0.00 in0.0 mm
10:25 AM 54.3°F12.4°C 52.0°F11.1°C 92% 8.0 mph SW12.9 kmh SW 19.0 mph30.6 kmh 29.88 in1011.9 mb 0.00 in0.0 mm 0.00 in/hr0.0 mm/hr 0.00 in0.0 mm
10:20 AM 54.3°F12.4°C 52.0°F11.1°C 92% 7.0 mph SW11.3 kmh SW 19.0 mph30.6 kmh 29.88 in1011.9 mb 0.00 in0.0 mm 0.00 in/hr0.0 mm/hr 0.00 in0.0 mm
10:15 AM 54.5°F12.5°C 52.2°F11.2°C 92% 6.0 mph SW9.7 kmh SW 16.0 mph25.7 kmh 29.88 in1011.9 mb 0.00 in0.0 mm 0.00 in/hr0.0 mm/hr 0.00 in0.0 mm
10:10 AM 54.7°F12.6°C 52.4°F11.3°C 92% 6.0 mph SW9.7 kmh SW 15.0 mph24.1 kmh 29.88 in1011.9 mb 0.00 in0.0 mm 0.00 in/hr0.0 mm/hr 0.00 in0.0 mm
10:05 AM 54.9°F12.7°C 52.6°F11.4°C 92% 6.0 mph SW9.7 kmh SW 16.0 mph25.7 kmh 29.88 in1011.9 mb 0.00 in0.0 mm 0.00 in/hr0.0 mm/hr 0.00 in0.0 mm
10:00 AM 54.9°F12.7°C 52.6°F11.4°C 92% 7.0 mph SW11.3 kmh SW 17.0 mph27.4 kmh 29.87 in1011.5 mb 0.00 in0.0 mm 0.00 in/hr0.0 mm/hr 0.00 in0.0 mm
09:55 AM 54.9°F12.7°C 52.6°F11.4°C 92% 7.0 mph SW11.3 kmh SW 17.0 mph27.4 kmh 29.87 in1011.5 mb 0.00 in0.0 mm 0.00 in/hr0.0 mm/hr 0.00 in0.0 mm
09:50 AM 54.9°F12.7°C 52.6°F11.4°C 92% 8.0 mph SW12.9 kmh SW 14.0 mph22.5 kmh 29.87 in1011.5 mb 0.00 in0.0 mm 0.00 in/hr0.0 mm/hr 0.00 in0.0 mm
09:45 AM 54.9°F12.7°C 52.6°F11.4°C 92% 8.0 mph WSW12.9 kmh WSW 18.0 mph29.0 kmh 29.86 in1011.2 mb 0.00 in0.0 mm 0.00 in/hr0.0 mm/hr 0.00 in0.0 mm
09:40 AM 54.9°F12.7°C 52.6°F11.4°C 92% 7.0 mph SW11.3 kmh SW 18.0 mph29.0 kmh 29.86 in1011.2 mb 0.00 in0.0 mm 0.00 in/hr0.0 mm/hr 0.00 in0.0 mm
09:30 AM 54.9°F12.7°C 52.6°F11.4°C 92% 6.0 mph SW9.7 kmh SW 15.0 mph24.1 kmh 29.86 in1011.2 mb 0.00 in0.0 mm 0.00 in/hr0.0 mm/hr 0.00 in0.0 mm
09:25 AM 54.7°F12.6°C 52.4°F11.3°C 92% 7.0 mph SW11.3 kmh SW 18.0 mph29.0 kmh 29.86 in1011.2 mb 0.00 in0.0 mm 0.00 in/hr0.0 mm/hr 0.00 in0.0 mm
09:20 AM 54.7°F12.6°C 52.4°F11.3°C 92% 7.0 mph SW11.3 kmh SW 18.0 mph29.0 kmh 29.86 in1011.2 mb 0.00 in0.0 mm 0.00 in/hr0.0 mm/hr 0.00 in0.0 mm
09:15 AM 54.9°F12.7°C 52.6°F11.4°C 92% 7.0 mph SW11.3 kmh SW 14.0 mph22.5 kmh 29.86 in1011.2 mb 0.00 in0.0 mm 0.00 in/hr0.0 mm/hr 0.00 in0.0 mm
09:10 AM 54.9°F12.7°C 52.6°F11.4°C 92% 8.0 mph WSW12.9 kmh WSW 19.0 mph30.6 kmh 29.86 in1011.2 mb 0.00 in0.0 mm 0.00 in/hr0.0 mm/hr 0.00 in0.0 mm
09:05 AM 55.0°F12.8°C 52.8°F11.6°C 92% 8.0 mph WSW12.9 kmh WSW 19.0 mph30.6 kmh 29.86 in1011.2 mb 0.00 in0.0 mm 0.00 in/hr0.0 mm/hr 0.00 in0.0 mm
09:00 AM 55.0°F12.8°C 52.8°F11.6°C 92% 8.0 mph WSW12.9 kmh WSW 20.0 mph32.2 kmh 29.86 in1011.2 mb 0.00 in0.0 mm 0.00 in/hr0.0 mm/hr 0.00 in0.0 mm
08:55 AM 55.0°F12.8°C 52.8°F11.6°C 92% 8.0 mph WSW12.9 kmh WSW 20.0 mph32.2 kmh 29.85 in1010.8 mb 0.00 in0.0 mm 0.00 in/hr0.0 mm/hr 0.00 in0.0 mm
08:50 AM 55.0°F12.8°C 52.8°F11.6°C 92% 8.0 mph WSW12.9 kmh WSW 23.0 mph37.0 kmh 29.86 in1011.2 mb 0.00 in0.0 mm 0.00 in/hr0.0 mm/hr 0.00 in0.0 mm
08:45 AM 54.9°F12.7°C 52.9°F11.6°C 93% 7.0 mph WSW11.3 kmh WSW 23.0 mph37.0 kmh 29.85 in1010.8 mb 0.00 in0.0 mm 0.00 in/hr0.0 mm/hr 0.00 in0.0 mm
08:40 AM 54.9°F12.7°C 52.9°F11.6°C 93% 7.0 mph WSW11.3 kmh WSW 17.0 mph27.4 kmh 29.86 in1011.2 mb 0.00 in0.0 mm 0.00 in/hr0.0 mm/hr 0.00 in0.0 mm
08:35 AM 54.7°F12.6°C 52.7°F11.5°C 93% 7.0 mph WSW11.3 kmh WSW 14.0 mph22.5 kmh 29.85 in1010.8 mb 0.00 in0.0 mm 0.00 in/hr0.0 mm/hr 0.00 in0.0 mm
08:30 AM 54.7°F12.6°C 52.7°F11.5°C 93% 7.0 mph WSW11.3 kmh WSW 16.0 mph25.7 kmh 29.85 in1010.8 mb 0.00 in0.0 mm 0.00 in/hr0.0 mm/hr 0.00 in0.0 mm
08:25 AM 54.7°F12.6°C 52.7°F11.5°C 93% 7.0 mph WSW11.3 kmh WSW 16.0 mph25.7 kmh 29.85 in1010.8 mb 0.00 in0.0 mm 0.00 in/hr0.0 mm/hr 0.00 in0.0 mm
08:20 AM 54.7°F12.6°C 52.7°F11.5°C 93% 7.0 mph WSW11.3 kmh WSW 16.0 mph25.7 kmh 29.85 in1010.8 mb 0.00 in0.0 mm 0.00 in/hr0.0 mm/hr 0.00 in0.0 mm
08:15 AM 54.5°F12.5°C 52.5°F11.4°C 93% 7.0 mph WSW11.3 kmh WSW 13.0 mph20.9 kmh 29.84 in1010.5 mb 0.00 in0.0 mm 0.00 in/hr0.0 mm/hr 0.00 in0.0 mm
08:10 AM 54.7°F12.6°C 52.7°F11.5°C 93% 8.0 mph WSW12.9 kmh WSW 17.0 mph27.4 kmh 29.84 in1010.5 mb 0.00 in0.0 mm 0.00 in/hr0.0 mm/hr 0.00 in0.0 mm
08:05 AM 54.5°F12.5°C 52.8°F11.6°C 94% 7.0 mph WSW11.3 kmh WSW 17.0 mph27.4 kmh 29.84 in1010.5 mb 0.00 in0.0 mm 0.00 in/hr0.0 mm/hr 0.00 in0.0 mm
08:00 AM 54.5°F12.5°C 52.8°F11.6°C 94% 7.0 mph WSW11.3 kmh WSW 15.0 mph24.1 kmh 29.84 in1010.5 mb 0.00 in0.0 mm 0.00 in/hr0.0 mm/hr 0.00 in0.0 mm
07:55 AM 54.3°F12.4°C 52.6°F11.4°C 94% 6.0 mph WSW9.7 kmh WSW 12.0 mph19.3 kmh 29.84 in1010.5 mb 0.00 in0.0 mm 0.00 in/hr0.0 mm/hr 0.00 in0.0 mm
07:50 AM 54.3°F12.4°C 52.6°F11.4°C 94% 6.0 mph WSW9.7 kmh WSW 13.0 mph20.9 kmh 29.84 in1010.5 mb 0.00 in0.0 mm 0.00 in/hr0.0 mm/hr 0.00 in0.0 mm
07:45 AM 54.3°F12.4°C 52.6°F11.4°C 94% 6.0 mph SW9.7 kmh SW 13.0 mph20.9 kmh 29.83 in1010.2 mb 0.00 in0.0 mm 0.00 in/hr0.0 mm/hr 0.00 in0.0 mm
07:40 AM 54.3°F12.4°C 52.6°F11.4°C 94% 6.0 mph WSW9.7 kmh WSW 12.0 mph19.3 kmh 29.84 in1010.5 mb 0.00 in0.0 mm 0.00 in/hr0.0 mm/hr 0.00 in0.0 mm
07:35 AM 54.1°F12.3°C 52.5°F11.4°C 94% 6.0 mph WSW9.7 kmh WSW 13.0 mph20.9 kmh 29.84 in1010.5 mb 0.00 in0.0 mm 0.00 in/hr0.0 mm/hr 0.00 in0.0 mm
07:30 AM 54.1°F12.3°C 52.5°F11.4°C 94% 5.0 mph WSW8.0 kmh WSW 13.0 mph20.9 kmh 29.84 in1010.5 mb 0.00 in0.0 mm 0.00 in/hr0.0 mm/hr 0.00 in0.0 mm
07:25 AM 54.1°F12.3°C 52.7°F11.5°C 95% 5.0 mph SW8.0 kmh SW 13.0 mph20.9 kmh 29.84 in1010.5 mb 0.00 in0.0 mm 0.00 in/hr0.0 mm/hr 0.00 in0.0 mm
07:20 AM 54.0°F12.2°C 52.6°F11.4°C 95% 5.0 mph SW8.0 kmh SW 13.0 mph20.9 kmh 29.84 in1010.5 mb 0.00 in0.0 mm 0.00 in/hr0.0 mm/hr 0.00 in0.0 mm
07:15 AM 54.0°F12.2°C 52.6°F11.4°C 95% 5.0 mph WSW8.0 kmh WSW 10.0 mph16.1 kmh 29.84 in1010.5 mb 0.00 in0.0 mm 0.00 in/hr0.0 mm/hr 0.00 in0.0 mm
07:10 AM 54.0°F12.2°C 52.6°F11.4°C 95% 5.0 mph WSW8.0 kmh WSW 11.0 mph17.7 kmh 29.84 in1010.5 mb 0.00 in0.0 mm 0.00 in/hr0.0 mm/hr 0.00 in0.0 mm
07:05 AM 54.0°F12.2°C 52.6°F11.4°C 95% 6.0 mph WSW9.7 kmh WSW 14.0 mph22.5 kmh 29.84 in1010.5 mb 0.00 in0.0 mm 0.00 in/hr0.0 mm/hr 0.00 in0.0 mm
07:00 AM 54.0°F12.2°C 52.6°F11.4°C 95% 6.0 mph WSW9.7 kmh WSW 14.0 mph22.5 kmh 29.84 in1010.5 mb 0.00 in0.0 mm 0.00 in/hr0.0 mm/hr 0.00 in0.0 mm
06:55 AM 54.0°F12.2°C 52.6°F11.4°C 95% 6.0 mph WSW9.7 kmh WSW 14.0 mph22.5 kmh 29.84 in1010.5 mb 0.00 in0.0 mm 0.00 in/hr0.0 mm/hr 0.00 in0.0 mm
06:50 AM 54.0°F12.2°C 52.6°F11.4°C 95% 6.0 mph WSW9.7 kmh WSW 14.0 mph22.5 kmh 29.84 in1010.5 mb 0.00 in0.0 mm 0.00 in/hr0.0 mm/hr 0.00 in0.0 mm
06:45 AM 54.0°F12.2°C 52.6°F11.4°C 95% 6.0 mph WSW9.7 kmh WSW 14.0 mph22.5 kmh 29.84 in1010.5 mb 0.00 in0.0 mm 0.00 in/hr0.0 mm/hr 0.00 in0.0 mm
06:40 AM 54.0°F12.2°C 52.6°F11.4°C 95% 6.0 mph WSW9.7 kmh WSW 13.0 mph20.9 kmh 29.84 in1010.5 mb 0.00 in0.0 mm 0.00 in/hr0.0 mm/hr 0.00 in0.0 mm
06:35 AM 54.0°F12.2°C 52.3°F11.3°C 94% 6.0 mph SW9.7 kmh SW 12.0 mph19.3 kmh 29.84 in1010.5 mb 0.00 in0.0 mm 0.00 in/hr0.0 mm/hr 0.00 in0.0 mm
06:30 AM 54.0°F12.2°C 52.3°F11.3°C 94% 5.0 mph WSW8.0 kmh WSW 12.0 mph19.3 kmh 29.84 in1010.5 mb 0.00 in0.0 mm 0.00 in/hr0.0 mm/hr 0.00 in0.0 mm
06:25 AM 54.0°F12.2°C 52.3°F11.3°C 94% 5.0 mph WSW8.0 kmh WSW 12.0 mph19.3 kmh 29.84 in1010.5 mb 0.00 in0.0 mm 0.00 in/hr0.0 mm/hr 0.00 in0.0 mm
06:20 AM 54.0°F12.2°C 52.3°F11.3°C 94% 5.0 mph SW8.0 kmh SW 12.0 mph19.3 kmh 29.84 in1010.5 mb 0.00 in0.0 mm 0.00 in/hr0.0 mm/hr 0.00 in0.0 mm
06:15 AM 54.1°F12.3°C 52.5°F11.4°C 94% 5.0 mph SW8.0 kmh SW 12.0 mph19.3 kmh 29.84 in1010.5 mb 0.00 in0.0 mm 0.00 in/hr0.0 mm/hr 0.00 in0.0 mm
06:10 AM 54.1°F12.3°C 52.5°F11.4°C 94% 5.0 mph WSW8.0 kmh WSW 11.0 mph17.7 kmh 29.84 in1010.5 mb 0.00 in0.0 mm 0.00 in/hr0.0 mm/hr 0.00 in0.0 mm
06:05 AM 54.1°F12.3°C 52.5°F11.4°C 94% 4.0 mph WSW6.4 kmh WSW 13.0 mph20.9 kmh 29.84 in1010.5 mb 0.00 in0.0 mm 0.00 in/hr0.0 mm/hr 0.00 in0.0 mm
06:00 AM 54.3°F12.4°C 52.3°F11.3°C 93% 5.0 mph WSW8.0 kmh WSW 13.0 mph20.9 kmh 29.84 in1010.5 mb 0.00 in0.0 mm 0.00 in/hr0.0 mm/hr 0.00 in0.0 mm
05:55 AM 54.3°F12.4°C 52.3°F11.3°C 93% 6.0 mph WSW9.7 kmh WSW 11.0 mph17.7 kmh 29.84 in1010.5 mb 0.00 in0.0 mm 0.00 in/hr0.0 mm/hr 0.00 in0.0 mm
05:50 AM 54.3°F12.4°C 52.3°F11.3°C 93% 7.0 mph WSW11.3 kmh WSW 15.0 mph24.1 kmh 29.84 in1010.5 mb 0.00 in0.0 mm 0.00 in/hr0.0 mm/hr 0.00 in0.0 mm
05:45 AM 54.5°F12.5°C 52.5°F11.4°C 93% 7.0 mph WSW11.3 kmh WSW 15.0 mph24.1 kmh 29.84 in1010.5 mb 0.00 in0.0 mm 0.00 in/hr0.0 mm/hr 0.00 in0.0 mm
05:40 AM 54.5°F12.5°C 52.5°F11.4°C 93% 8.0 mph WSW12.9 kmh WSW 16.0 mph25.7 kmh 29.84 in1010.5 mb 0.00 in0.0 mm 0.00 in/hr0.0 mm/hr 0.00 in0.0 mm
05:35 AM 54.7°F12.6°C 52.7°F11.5°C 93% 8.0 mph WSW12.9 kmh WSW 18.0 mph29.0 kmh 29.84 in1010.5 mb 0.00 in0.0 mm 0.00 in/hr0.0 mm/hr 0.00 in0.0 mm
05:30 AM 54.7°F12.6°C 52.7°F11.5°C 93% 8.0 mph WSW12.9 kmh WSW 18.0 mph29.0 kmh 29.84 in1010.5 mb 0.00 in0.0 mm 0.00 in/hr0.0 mm/hr 0.00 in0.0 mm
05:25 AM 54.7°F12.6°C 52.4°F11.3°C 92% 8.0 mph WSW12.9 kmh WSW 16.0 mph25.7 kmh 29.84 in1010.5 mb 0.00 in0.0 mm 0.00 in/hr0.0 mm/hr 0.00 in0.0 mm
05:20 AM 54.9°F12.7°C 52.6°F11.4°C 92% 8.0 mph WSW12.9 kmh WSW 17.0 mph27.4 kmh 29.84 in1010.5 mb 0.00 in0.0 mm 0.00 in/hr0.0 mm/hr 0.00 in0.0 mm
05:15 AM 54.9°F12.7°C 52.6°F11.4°C 92% 9.0 mph WSW14.5 kmh WSW 17.0 mph27.4 kmh 29.84 in1010.5 mb 0.00 in0.0 mm 0.00 in/hr0.0 mm/hr 0.00 in0.0 mm
05:10 AM 55.0°F12.8°C 52.8°F11.6°C 92% 9.0 mph WSW14.5 kmh WSW 20.0 mph32.2 kmh 29.84 in1010.5 mb 0.00 in0.0 mm 0.00 in/hr0.0 mm/hr 0.00 in0.0 mm
05:05 AM 55.0°F12.8°C 52.8°F11.6°C 92% 8.0 mph WSW12.9 kmh WSW 20.0 mph32.2 kmh 29.84 in1010.5 mb 0.00 in0.0 mm 0.00 in/hr0.0 mm/hr 0.00 in0.0 mm
05:00 AM 54.9°F12.7°C 52.6°F11.4°C 92% 7.0 mph WSW11.3 kmh WSW 17.0 mph27.4 kmh 29.84 in1010.5 mb 0.00 in0.0 mm 0.00 in/hr0.0 mm/hr 0.00 in0.0 mm
04:55 AM 54.7°F12.6°C 52.4°F11.3°C 92% 8.0 mph WSW12.9 kmh WSW 17.0 mph27.4 kmh 29.84 in1010.5 mb 0.00 in0.0 mm 0.00 in/hr0.0 mm/hr 0.00 in0.0 mm
04:50 AM 54.7°F12.6°C 52.4°F11.3°C 92% 8.0 mph WSW12.9 kmh WSW 15.0 mph24.1 kmh 29.83 in1010.2 mb 0.00 in0.0 mm 0.00 in/hr0.0 mm/hr 0.00 in0.0 mm
04:45 AM 54.7°F12.6°C 52.4°F11.3°C 92% 7.0 mph WSW11.3 kmh WSW 15.0 mph24.1 kmh 29.83 in1010.2 mb 0.00 in0.0 mm 0.00 in/hr0.0 mm/hr 0.00 in0.0 mm
04:40 AM 54.9°F12.7°C 52.6°F11.4°C 92% 7.0 mph WSW11.3 kmh WSW 15.0 mph24.1 kmh 29.83 in1010.2 mb 0.00 in0.0 mm 0.00 in/hr0.0 mm/hr 0.00 in0.0 mm
04:35 AM 54.9°F12.7°C 52.6°F11.4°C 92% 8.0 mph WSW12.9 kmh WSW 15.0 mph24.1 kmh 29.84 in1010.5 mb 0.00 in0.0 mm 0.00 in/hr0.0 mm/hr 0.00 in0.0 mm
04:30 AM 54.9°F12.7°C 52.6°F11.4°C 92% 8.0 mph WSW12.9 kmh WSW 15.0 mph24.1 kmh 29.84 in1010.5 mb 0.00 in0.0 mm 0.00 in/hr0.0 mm/hr 0.00 in0.0 mm
04:25 AM 54.9°F12.7°C 52.3°F11.3°C 91% 8.0 mph WSW12.9 kmh WSW 15.0 mph24.1 kmh 29.83 in1010.2 mb 0.00 in0.0 mm 0.00 in/hr0.0 mm/hr 0.00 in0.0 mm
04:20 AM 54.9°F12.7°C 52.3°F11.3°C 91% 8.0 mph WSW12.9 kmh WSW 16.0 mph25.7 kmh 29.83 in1010.2 mb 0.00 in0.0 mm 0.00 in/hr0.0 mm/hr 0.00 in0.0 mm
04:15 AM 54.9°F12.7°C 52.3°F11.3°C 91% 10.0 mph WSW16.1 kmh WSW 17.0 mph27.4 kmh 29.83 in1010.2 mb 0.00 in0.0 mm 0.00 in/hr0.0 mm/hr 0.00 in0.0 mm
04:10 AM 54.9°F12.7°C 52.3°F11.3°C 91% 10.0 mph WSW16.1 kmh WSW 17.0 mph27.4 kmh 29.83 in1010.2 mb 0.00 in0.0 mm 0.00 in/hr0.0 mm/hr 0.00 in0.0 mm
04:05 AM 54.9°F12.7°C 52.3°F11.3°C 91% 10.0 mph WSW16.1 kmh WSW 17.0 mph27.4 kmh 29.83 in1010.2 mb 0.00 in0.0 mm 0.00 in/hr0.0 mm/hr 0.00 in0.0 mm
04:00 AM 54.9°F12.7°C 52.3°F11.3°C 91% 10.0 mph WSW16.1 kmh WSW 19.0 mph30.6 kmh 29.83 in1010.2 mb 0.00 in0.0 mm 0.00 in/hr0.0 mm/hr 0.00 in0.0 mm
03:55 AM 54.9°F12.7°C 52.6°F11.4°C 92% 9.0 mph WSW14.5 kmh WSW 19.0 mph30.6 kmh 29.83 in1010.2 mb 0.00 in0.0 mm 0.00 in/hr0.0 mm/hr 0.00 in0.0 mm
03:50 AM 54.7°F12.6°C 52.4°F11.3°C 92% 9.0 mph WSW14.5 kmh WSW 18.0 mph29.0 kmh 29.83 in1010.2 mb 0.00 in0.0 mm 0.00 in/hr0.0 mm/hr 0.00 in0.0 mm
03:45 AM 54.7°F12.6°C 52.4°F11.3°C 92% 9.0 mph WSW14.5 kmh WSW 18.0 mph29.0 kmh 29.83 in1010.2 mb 0.00 in0.0 mm 0.00 in/hr0.0 mm/hr 0.00 in0.0 mm
03:40 AM 54.7°F12.6°C 52.4°F11.3°C 92% 8.0 mph WSW12.9 kmh WSW 19.0 mph30.6 kmh 29.83 in1010.2 mb 0.00 in0.0 mm 0.00 in/hr0.0 mm/hr 0.00 in0.0 mm
03:35 AM 54.7°F12.6°C 52.4°F11.3°C 92% 9.0 mph WSW14.5 kmh WSW 19.0 mph30.6 kmh 29.83 in1010.2 mb 0.00 in0.0 mm 0.00 in/hr0.0 mm/hr 0.00 in0.0 mm
03:30 AM 54.5°F12.5°C 52.2°F11.2°C 92% 8.0 mph WSW12.9 kmh WSW 18.0 mph29.0 kmh 29.83 in1010.2 mb 0.00 in0.0 mm 0.00 in/hr0.0 mm/hr 0.00 in0.0 mm
03:25 AM 54.5°F12.5°C 52.2°F11.2°C 92% 8.0 mph WSW12.9 kmh WSW 18.0 mph29.0 kmh 29.83 in1010.2 mb 0.00 in0.0 mm 0.00 in/hr0.0 mm/hr 0.00 in0.0 mm
03:20 AM 54.7°F12.6°C 52.4°F11.3°C 92% 8.0 mph WSW12.9 kmh WSW 17.0 mph27.4 kmh 29.83 in1010.2 mb 0.00 in0.0 mm 0.00 in/hr0.0 mm/hr 0.00 in0.0 mm
03:15 AM 54.7°F12.6°C 52.4°F11.3°C 92% 8.0 mph WSW12.9 kmh WSW 14.0 mph22.5 kmh 29.83 in1010.2 mb 0.00 in0.0 mm 0.00 in/hr0.0 mm/hr 0.00 in0.0 mm
03:10 AM 54.7°F12.6°C 52.4°F11.3°C 92% 8.0 mph WSW12.9 kmh WSW 17.0 mph27.4 kmh 29.83 in1010.2 mb 0.00 in0.0 mm 0.00 in/hr0.0 mm/hr 0.00 in0.0 mm
03:05 AM 54.7°F12.6°C 52.7°F11.5°C 93% 7.0 mph WSW11.3 kmh WSW 17.0 mph27.4 kmh 29.84 in1010.5 mb 0.00 in0.0 mm 0.00 in/hr0.0 mm/hr 0.00 in0.0 mm
03:00 AM 54.5°F12.5°C 52.5°F11.4°C 93% 7.0 mph WSW11.3 kmh WSW 20.0 mph32.2 kmh 29.84 in1010.5 mb 0.00 in0.0 mm 0.00 in/hr0.0 mm/hr 0.00 in0.0 mm
02:55 AM 54.3°F12.4°C 52.3°F11.3°C 93% 7.0 mph WSW11.3 kmh WSW 20.0 mph32.2 kmh 29.83 in1010.2 mb 0.00 in0.0 mm 0.00 in/hr0.0 mm/hr 0.00 in0.0 mm
02:50 AM 54.3°F12.4°C 52.3°F11.3°C 93% 7.0 mph WSW11.3 kmh WSW 13.0 mph20.9 kmh 29.83 in1010.2 mb 0.00 in0.0 mm 0.00 in/hr0.0 mm/hr 0.00 in0.0 mm
02:45 AM 54.3°F12.4°C 52.3°F11.3°C 93% 7.0 mph WSW11.3 kmh WSW 13.0 mph20.9 kmh 29.83 in1010.2 mb 0.00 in0.0 mm 0.00 in/hr0.0 mm/hr 0.00 in0.0 mm
02:40 AM 54.3°F12.4°C 52.3°F11.3°C 93% 6.0 mph WSW9.7 kmh WSW 13.0 mph20.9 kmh 29.84 in1010.5 mb 0.00 in0.0 mm 0.00 in/hr0.0 mm/hr 0.00 in0.0 mm
02:35 AM 54.3°F12.4°C 52.3°F11.3°C 93% 7.0 mph WSW11.3 kmh WSW 14.0 mph22.5 kmh 29.83 in1010.2 mb 0.00 in0.0 mm 0.00 in/hr0.0 mm/hr 0.00 in0.0 mm
02:30 AM 54.5°F12.5°C 52.5°F11.4°C 93% 8.0 mph WSW12.9 kmh WSW 15.0 mph24.1 kmh 29.83 in1010.2 mb 0.00 in0.0 mm 0.00 in/hr0.0 mm/hr 0.00 in0.0 mm
02:25 AM 54.5°F12.5°C 52.5°F11.4°C 93% 7.0 mph WSW11.3 kmh WSW 16.0 mph25.7 kmh 29.83 in1010.2 mb 0.00 in0.0 mm 0.00 in/hr0.0 mm/hr 0.00 in0.0 mm
02:20 AM 54.7°F12.6°C 52.7°F11.5°C 93% 7.0 mph WSW11.3 kmh WSW 16.0 mph25.7 kmh 29.83 in1010.2 mb 0.00 in0.0 mm 0.00 in/hr0.0 mm/hr 0.00 in0.0 mm
02:15 AM 54.7°F12.6°C 52.7°F11.5°C 93% 8.0 mph WSW12.9 kmh WSW 15.0 mph24.1 kmh 29.83 in1010.2 mb 0.00 in0.0 mm 0.00 in/hr0.0 mm/hr 0.00 in0.0 mm
02:10 AM 54.7°F12.6°C 52.7°F11.5°C 93% 8.0 mph WSW12.9 kmh WSW 16.0 mph25.7 kmh 29.83 in1010.2 mb 0.00 in0.0 mm 0.00 in/hr0.0 mm/hr 0.00 in0.0 mm
02:05 AM 54.9°F12.7°C 52.6°F11.4°C 92% 8.0 mph WSW12.9 kmh WSW 19.0 mph30.6 kmh 29.83 in1010.2 mb 0.00 in0.0 mm 0.00 in/hr0.0 mm/hr 0.00 in0.0 mm
02:00 AM 54.9°F12.7°C 52.6°F11.4°C 92% 7.0 mph WSW11.3 kmh WSW 19.0 mph30.6 kmh 29.82 in1009.8 mb 0.00 in0.0 mm 0.00 in/hr0.0 mm/hr 0.00 in0.0 mm
01:55 AM 54.9°F12.7°C 52.6°F11.4°C 92% 7.0 mph WSW11.3 kmh WSW 16.0 mph25.7 kmh 29.82 in1009.8 mb 0.00 in0.0 mm 0.00 in/hr0.0 mm/hr 0.00 in0.0 mm
01:50 AM 54.9°F12.7°C 52.6°F11.4°C 92% 7.0 mph WSW11.3 kmh WSW 16.0 mph25.7 kmh 29.82 in1009.8 mb 0.00 in0.0 mm 0.00 in/hr0.0 mm/hr 0.00 in0.0 mm
01:45 AM 55.0°F12.8°C 52.8°F11.6°C 92% 7.0 mph WSW11.3 kmh WSW 16.0 mph25.7 kmh 29.82 in1009.8 mb 0.00 in0.0 mm 0.00 in/hr0.0 mm/hr 0.00 in0.0 mm
01:40 AM 55.0°F12.8°C 52.8°F11.6°C 92% 7.0 mph WSW11.3 kmh WSW 15.0 mph24.1 kmh 29.82 in1009.8 mb 0.00 in0.0 mm 0.00 in/hr0.0 mm/hr 0.00 in0.0 mm
01:35 AM 55.0°F12.8°C 52.8°F11.6°C 92% 7.0 mph WSW11.3 kmh WSW 15.0 mph24.1 kmh 29.82 in1009.8 mb 0.00 in0.0 mm 0.00 in/hr0.0 mm/hr 0.00 in0.0 mm
01:30 AM 55.0°F12.8°C 52.8°F11.6°C 92% 7.0 mph WSW11.3 kmh WSW 15.0 mph24.1 kmh 29.81 in1009.5 mb 0.00 in0.0 mm 0.00 in/hr0.0 mm/hr 0.00 in0.0 mm
01:25 AM 55.0°F12.8°C 52.8°F11.6°C 92% 7.0 mph WSW11.3 kmh WSW 13.0 mph20.9 kmh 29.81 in1009.5 mb 0.00 in0.0 mm 0.00 in/hr0.0 mm/hr 0.00 in0.0 mm
01:20 AM 55.0°F12.8°C 52.8°F11.6°C 92% 8.0 mph WSW12.9 kmh WSW 13.0 mph20.9 kmh 29.82 in1009.8 mb 0.00 in0.0 mm 0.00 in/hr0.0 mm/hr 0.00 in0.0 mm
01:15 AM 55.0°F12.8°C 52.8°F11.6°C 92% 8.0 mph WSW12.9 kmh WSW 17.0 mph27.4 kmh 29.81 in1009.5 mb 0.00 in0.0 mm 0.00 in/hr0.0 mm/hr 0.00 in0.0 mm
01:10 AM 55.0°F12.8°C 53.1°F11.7°C 93% 7.0 mph WSW11.3 kmh WSW 17.0 mph27.4 kmh 29.81 in1009.5 mb 0.00 in0.0 mm 0.00 in/hr0.0 mm/hr 0.00 in0.0 mm
01:05 AM 55.0°F12.8°C 53.1°F11.7°C 93% 7.0 mph WSW11.3 kmh WSW 17.0 mph27.4 kmh 29.81 in1009.5 mb 0.00 in0.0 mm 0.00 in/hr0.0 mm/hr 0.00 in0.0 mm
01:00 AM 54.9°F12.7°C 52.9°F11.6°C 93% 7.0 mph WSW11.3 kmh WSW 16.0 mph25.7 kmh 29.81 in1009.5 mb 0.00 in0.0 mm 0.00 in/hr0.0 mm/hr 0.00 in0.0 mm
12:55 AM 54.9°F12.7°C 52.9°F11.6°C 93% 7.0 mph WSW11.3 kmh WSW 14.0 mph22.5 kmh 29.82 in1009.8 mb 0.00 in0.0 mm 0.00 in/hr0.0 mm/hr 0.00 in0.0 mm
12:50 AM 54.7°F12.6°C 53.0°F11.7°C 94% 7.0 mph WSW11.3 kmh WSW 14.0 mph22.5 kmh 29.82 in1009.8 mb 0.00 in0.0 mm 0.00 in/hr0.0 mm/hr 0.00 in0.0 mm
12:45 AM 54.7°F12.6°C 53.0°F11.7°C 94% 6.0 mph WSW9.7 kmh WSW 14.0 mph22.5 kmh 29.81 in1009.5 mb 0.00 in0.0 mm 0.00 in/hr0.0 mm/hr 0.00 in0.0 mm
12:40 AM 54.7°F12.6°C 53.0°F11.7°C 94% 5.0 mph WSW8.0 kmh WSW 14.0 mph22.5 kmh 29.81 in1009.5 mb 0.00 in0.0 mm 0.00 in/hr0.0 mm/hr 0.00 in0.0 mm
12:35 AM 54.5°F12.5°C 52.8°F11.6°C 94% 5.0 mph WSW8.0 kmh WSW 12.0 mph19.3 kmh 29.82 in1009.8 mb 0.00 in0.0 mm 0.00 in/hr0.0 mm/hr 0.00 in0.0 mm
12:30 AM 54.5°F12.5°C 52.8°F11.6°C 94% 5.0 mph WSW8.0 kmh WSW 12.0 mph19.3 kmh 29.82 in1009.8 mb 0.00 in0.0 mm 0.00 in/hr0.0 mm/hr 0.00 in0.0 mm
12:25 AM 54.5°F12.5°C 52.8°F11.6°C 94% 5.0 mph WSW8.0 kmh WSW 11.0 mph17.7 kmh 29.82 in1009.8 mb 0.00 in0.0 mm 0.00 in/hr0.0 mm/hr 0.00 in0.0 mm
12:20 AM 54.5°F12.5°C 52.8°F11.6°C 94% 5.0 mph WSW8.0 kmh WSW 11.0 mph17.7 kmh 29.82 in1009.8 mb 0.00 in0.0 mm 0.00 in/hr0.0 mm/hr 0.00 in0.0 mm
12:15 AM 54.5°F12.5°C 52.8°F11.6°C 94% 5.0 mph WSW8.0 kmh WSW 11.0 mph17.7 kmh 29.82 in1009.8 mb 0.00 in0.0 mm 0.00 in/hr0.0 mm/hr 0.00 in0.0 mm
12:10 AM 54.5°F12.5°C 52.8°F11.6°C 94% 5.0 mph WSW8.0 kmh WSW 12.0 mph19.3 kmh 29.82 in1009.8 mb 0.00 in0.0 mm 0.00 in/hr0.0 mm/hr 0.00 in0.0 mm
12:05 AM 54.7°F12.6°C 53.0°F11.7°C 94% 5.0 mph WSW8.0 kmh WSW 12.0 mph19.3 kmh 29.82 in1009.8 mb 0.00 in0.0 mm 0.00 in/hr0.0 mm/hr 0.00 in0.0 mm
12:00 AM 54.5°F12.5°C 52.8°F11.6°C 94% 6.0 mph WSW9.7 kmh WSW 13.0 mph20.9 kmh 29.82 in1009.8 mb 0.00 in0.0 mm 0.00 in/hr0.0 mm/hr 0.00 in0.0 mm